Strona główna
METAR-TAF:

METAR-TAF

Lotnisko :

Port lotniczy Honiara

Honiara, Guadalcanal, Wyspy Salomona

Szerokość geograficzna: 09-25S, Długość geograficzna: 160-03E, wysokość: 8 m

Aktualna obserwacja pogody

Raport powstał 1 godzina i 3 minut temu, godzina 01:00 UTC
Wiatr 7 kt od wschodnio-północny wschód
Temperatura 33°C
Wilgotność 63%
Ciśnienie 1009 hPa
Widzialność 10 km lub więcej
Mało chmury na wysokości 1900 ft
zmętnienie

METAR: AGGH 170100Z 07007KT 9999 HZ FEW019 33/25 Q1009

czas: 13:03 (02:03 UTC)

Prognoza

Raport powstał 2 godziny i 53 minut temu, godzina 23:10 UTC
Prognoza ważna od 17 godzina 00 UTC do 17 godzina 24 UTC
Wiatr 15 kt od wschód
Widzialność 10 km lub więcej
Rozproszone chmury na wysokości 2000 ft
Od 17 godzina 0700 UTC
Wiatr 7 kt od wschodnio-południowy wschód
Widzialność: 1009 m
Mało chmury na wysokości 1800 ft
Rozproszone chmury na wysokości 2900 ft

TAF: AGGH 162310Z 1700/1724 09015KT 9999 SCT020 FM170700 11007KT 9999 FEW018 SCT029 T 30 31 30 28 Q 1010 1008 1007 1009

Obserwacja i prognoza pogody dla ponad 4000 lotnisk (raport METAR i TAF).

Dostępne stacje oznaczono żółtymi i czerwonymi punktami na mapie.

Najedź kursorem aby zobaczyć nazwę stacji.

Kliknij aby zobaczyć obserwacje i prognozy pogody.

Aby zmienić mapę: kliknij na zielony przycisk z czarnym krzyżykiem, aby powiększyć; na zielony przycisk z myślnikiem, aby pomniejszyć; na zielone strzałki, aby przejść do map sąsiednich.


METAR-TAF: